Time;durP1;ratioP1;P1;durP2;ratioP2;P2;SDS_P1;SDS_P2;PMS_P1;PMS_P2;Temp;Humidity;BMP_temperature;BMP_pressure;BME280_temperature;BME280_humidity;BME280_pressure;Samples;Min_cycle;Max_cycle;Signal;HPM_P1;HPM_P2
2021/06/26 00:00:44;;;;;;;1.52;0.63;;;;;;;;;;5035145;28;20028;-62
2021/06/26 00:03:09;;;;;;;3.38;0.77;;;;;;;;;;5034840;28;20017;-61
2021/06/26 00:05:35;;;;;;;2.15;0.75;;;;;;;;;;5035254;28;20021;-61
2021/06/26 00:08:00;;;;;;;1.05;0.40;;;;;;;;;;5034722;28;20056;-61
2021/06/26 00:10:25;;;;;;;4.93;1.00;;;;;;;;;;5034811;28;20100;-61
2021/06/26 00:12:50;;;;;;;0.85;0.68;;;;;;;;;;5034548;28;20103;-61
2021/06/26 00:15:15;;;;;;;1.33;0.63;;;;;;;;;;5034722;28;20479;-62
2021/06/26 00:17:41;;;;;;;1.02;0.50;;;;;;;;;;5034656;28;20369;-61
2021/06/26 00:20:06;;;;;;;1.17;0.70;;;;;;;;;;5034476;28;20473;-61
2021/06/26 00:22:31;;;;;;;0.88;0.40;;;;;;;;;;5034478;28;20064;-61
2021/06/26 00:24:57;;;;;;;1.37;0.63;;;;;;;;;;5034274;28;20025;-61
2021/06/26 00:27:22;;;;;;;2.10;0.60;;;;;;;;;;5034519;28;20301;-61
2021/06/26 00:29:47;;;;;;;1.05;0.77;;;;;;;;;;5034754;28;20271;-61
2021/06/26 00:32:12;;;;;;;1.30;0.57;;;;;;;;;;5034369;28;20017;-62
2021/06/26 00:34:37;;;;;;;1.08;0.50;;;;;;;;;;5034327;28;20296;-62
2021/06/26 00:37:02;;;;;;;1.00;0.80;;;;;;;;;;5034166;28;20388;-61
2021/06/26 00:39:28;;;;;;;0.70;0.50;;;;;;;;;;5034287;28;20029;-62
2021/06/26 00:41:53;;;;;;;2.30;0.80;;;;;;;;;;5034058;28;20097;-61
2021/06/26 00:44:18;;;;;;;1.45;0.50;;;;;;;;;;5034080;28;20274;-61
2021/06/26 00:46:43;;;;;;;1.40;0.50;;;;;;;;;;5034018;28;20130;-61
2021/06/26 00:49:09;;;;;;;1.27;0.60;;;;;;;;;;5033982;28;20580;-62
2021/06/26 00:51:34;;;;;;;2.93;0.80;;;;;;;;;;5034029;28;20032;-62
2021/06/26 00:53:59;;;;;;;1.90;0.70;;;;;;;;;;5033883;28;20580;-61
2021/06/26 00:56:25;;;;;;;3.25;1.00;;;;;;;;;;5033826;28;20025;-61
2021/06/26 00:58:51;;;;;;;0.85;0.60;;;;;;;;;;5033658;28;20031;-62
2021/06/26 01:01:16;;;;;;;1.67;0.68;;;;;;;;;;5033854;28;20018;-61
2021/06/26 01:03:43;;;;;;;1.30;0.65;;;;;;;;;;5033959;28;20026;-61
2021/06/26 01:06:08;;;;;;;1.42;0.70;;;;;;;;;;5033630;28;20029;-61
2021/06/26 01:08:34;;;;;;;1.25;0.50;;;;;;;;;;5033692;28;20029;-61
2021/06/26 01:10:59;;;;;;;0.60;0.40;;;;;;;;;;5033537;28;20067;-61
2021/06/26 01:13:24;;;;;;;0.80;0.60;;;;;;;;;;5033581;28;20113;-62
2021/06/26 01:15:51;;;;;;;1.73;0.60;;;;;;;;;;5033415;28;20641;-61
2021/06/26 01:18:16;;;;;;;1.50;0.60;;;;;;;;;;5032161;28;20362;-61
2021/06/26 01:20:41;;;;;;;2.97;1.53;;;;;;;;;;5032178;28;20064;-61
2021/06/26 01:23:06;;;;;;;1.63;0.70;;;;;;;;;;5033199;28;20290;-61
2021/06/26 01:25:32;;;;;;;0.93;0.60;;;;;;;;;;5033363;28;20060;-61
2021/06/26 01:27:58;;;;;;;1.00;0.55;;;;;;;;;;5033142;28;20021;-62
2021/06/26 01:30:30;;;;;;;2.15;1.42;;;;;;;;;;5033201;28;20021;-62
2021/06/26 01:32:55;;;;;;;1.25;0.60;;;;;;;;;;5033091;28;20048;-62
2021/06/26 01:35:20;;;;;;;0.85;0.40;;;;;;;;;;5033149;28;20121;-62
2021/06/26 01:37:46;;;;;;;1.73;0.52;;;;;;;;;;5033340;28;20474;-62
2021/06/26 01:40:15;;;;;;;1.60;0.55;;;;;;;;;;5033315;28;20025;-62
2021/06/26 01:42:40;;;;;;;2.47;1.20;;;;;;;;;;5033013;28;20024;-62
2021/06/26 01:45:06;;;;;;;0.50;0.30;;;;;;;;;;5031534;28;20029;-61
2021/06/26 01:47:31;;;;;;;1.08;0.40;;;;;;;;;;5032859;28;20021;-61
2021/06/26 01:49:56;;;;;;;0.93;0.40;;;;;;;;;;5032769;28;20499;-62
2021/06/26 01:52:21;;;;;;;0.57;0.40;;;;;;;;;;5033011;28;20463;-62
2021/06/26 01:54:47;;;;;;;1.77;1.00;;;;;;;;;;5032342;28;20029;-62
2021/06/26 01:57:12;;;;;;;1.20;0.50;;;;;;;;;;5032850;28;20305;-62
2021/06/26 01:59:37;;;;;;;1.42;0.57;;;;;;;;;;5032766;28;20246;-62
2021/06/26 02:02:03;;;;;;;1.55;0.70;;;;;;;;;;5032605;28;20072;-62
2021/06/26 02:04:28;;;;;;;2.10;0.57;;;;;;;;;;5032737;28;20025;-61
2021/06/26 02:06:53;;;;;;;0.50;0.30;;;;;;;;;;5032555;28;20044;-61
2021/06/26 02:09:18;;;;;;;0.50;0.30;;;;;;;;;;5031456;28;20051;-62
2021/06/26 02:11:44;;;;;;;1.63;0.40;;;;;;;;;;5032583;28;20034;-62
2021/06/26 02:14:09;;;;;;;2.25;0.73;;;;;;;;;;5032500;28;20324;-61
2021/06/26 02:16:34;;;;;;;1.00;0.40;;;;;;;;;;5032596;28;20037;-62
2021/06/26 02:18:59;;;;;;;1.65;0.50;;;;;;;;;;5032428;28;20052;-61
2021/06/26 02:21:25;;;;;;;0.87;0.60;;;;;;;;;;5032527;28;20499;-61
2021/06/26 02:23:50;;;;;;;1.23;0.65;;;;;;;;;;5032073;28;20294;-62
2021/06/26 02:26:15;;;;;;;0.65;0.40;;;;;;;;;;5032461;28;20018;-62
2021/06/26 02:28:40;;;;;;;0.97;0.63;;;;;;;;;;5032456;28;20531;-62
2021/06/26 02:31:06;;;;;;;1.10;0.63;;;;;;;;;;5032235;28;20259;-62
2021/06/26 02:33:31;;;;;;;1.70;0.63;;;;;;;;;;5032730;28;20321;-62
2021/06/26 02:35:56;;;;;;;0.57;0.30;;;;;;;;;;5032160;28;20026;-61
2021/06/26 02:38:21;;;;;;;1.33;0.60;;;;;;;;;;5032334;28;20037;-62
2021/06/26 02:40:46;;;;;;;0.82;0.50;;;;;;;;;;5032200;28;20301;-62
2021/06/26 02:43:11;;;;;;;0.90;0.40;;;;;;;;;;5032191;28;20025;-62
2021/06/26 02:45:37;;;;;;;1.10;0.53;;;;;;;;;;5032302;28;20022;-62
2021/06/26 02:48:02;;;;;;;0.90;0.40;;;;;;;;;;5032050;28;20251;-61
2021/06/26 02:50:27;;;;;;;1.55;0.57;;;;;;;;;;5032288;28;20308;-61
2021/06/26 02:52:52;;;;;;;2.78;0.68;;;;;;;;;;5032587;28;20028;-62
2021/06/26 02:55:17;;;;;;;0.97;0.30;;;;;;;;;;5032219;28;20021;-61
2021/06/26 02:57:43;;;;;;;1.37;0.70;;;;;;;;;;5032148;28;20249;-62
2021/06/26 03:00:09;;;;;;;2.23;0.60;;;;;;;;;;5032002;28;20250;-61
2021/06/26 03:02:34;;;;;;;3.72;0.85;;;;;;;;;;5032431;28;20318;-62
2021/06/26 03:04:59;;;;;;;4.47;1.13;;;;;;;;;;5032185;28;20116;-62
2021/06/26 03:07:24;;;;;;;1.95;0.75;;;;;;;;;;5035662;28;20013;-61
2021/06/26 03:09:50;;;;;;;5.15;1.02;;;;;;;;;;5034468;28;20052;-62
2021/06/26 03:12:15;;;;;;;2.25;0.70;;;;;;;;;;5036190;28;20401;-62
2021/06/26 03:14:40;;;;;;;1.67;0.80;;;;;;;;;;5035802;28;20096;-61
2021/06/26 03:17:05;;;;;;;2.50;0.57;;;;;;;;;;5035677;28;20104;-62
2021/06/26 03:19:30;;;;;;;1.83;0.77;;;;;;;;;;5035597;28;20071;-62
2021/06/26 03:21:55;;;;;;;2.83;0.90;;;;;;;;;;5035499;28;20283;-62
2021/06/26 03:24:21;;;;;;;2.43;0.60;;;;;;;;;;5035245;28;20298;-62
2021/06/26 03:26:46;;;;;;;3.90;0.87;;;;;;;;;;5035482;28;20251;-62
2021/06/26 03:29:11;;;;;;;0.77;0.57;;;;;;;;;;5035542;28;20300;-62
2021/06/26 03:31:36;;;;;;;3.25;1.05;;;;;;;;;;5035427;28;20293;-62
2021/06/26 03:34:02;;;;;;;1.67;0.70;;;;;;;;;;5035365;28;20021;-62
2021/06/26 03:36:27;;;;;;;3.45;1.00;;;;;;;;;;5035410;28;20744;-62
2021/06/26 03:38:52;;;;;;;1.50;0.70;;;;;;;;;;5035270;28;20369;-62
2021/06/26 03:41:19;;;;;;;2.15;0.90;;;;;;;;;;5035336;28;20071;-62
2021/06/26 03:43:44;;;;;;;2.72;0.93;;;;;;;;;;5035161;28;20064;-62
2021/06/26 03:46:09;;;;;;;2.42;0.77;;;;;;;;;;5035165;28;20034;-62
2021/06/26 03:48:34;;;;;;;4.10;0.90;;;;;;;;;;5035241;28;20087;-62
2021/06/26 03:51:00;;;;;;;3.30;0.83;;;;;;;;;;5035151;28;20024;-62
2021/06/26 03:53:25;;;;;;;2.00;0.40;;;;;;;;;;5035166;28;20434;-62
2021/06/26 03:55:51;;;;;;;1.75;0.65;;;;;;;;;;5034939;28;20100;-62
2021/06/26 03:58:24;;;;;;;1.92;0.70;;;;;;;;;;5034990;28;20104;-62
2021/06/26 04:00:49;;;;;;;1.45;0.70;;;;;;;;;;5034760;28;20063;-62
2021/06/26 04:03:16;;;;;;;1.40;0.60;;;;;;;;;;5034885;28;20025;-62
2021/06/26 04:05:41;;;;;;;1.75;0.55;;;;;;;;;;5034854;28;20460;-62
2021/06/26 04:08:07;;;;;;;0.75;0.47;;;;;;;;;;5034732;28;20071;-62
2021/06/26 04:10:32;;;;;;;2.83;0.93;;;;;;;;;;5034910;28;20014;-62
2021/06/26 04:12:57;;;;;;;0.98;0.50;;;;;;;;;;5034620;28;20029;-62
2021/06/26 04:15:22;;;;;;;0.85;0.57;;;;;;;;;;5034722;28;20040;-62
2021/06/26 04:17:48;;;;;;;2.13;0.50;;;;;;;;;;5034183;28;20024;-62
2021/06/26 04:20:13;;;;;;;2.67;0.57;;;;;;;;;;5034674;28;20274;-62
2021/06/26 04:22:39;;;;;;;0.85;0.40;;;;;;;;;;5034451;28;20278;-62
2021/06/26 04:25:04;;;;;;;4.80;0.98;;;;;;;;;;5034286;28;20216;-62
2021/06/26 04:27:30;;;;;;;2.22;0.70;;;;;;;;;;5034552;28;20020;-63
2021/06/26 04:29:55;;;;;;;2.25;0.60;;;;;;;;;;5034233;28;20412;-62
2021/06/26 04:32:21;;;;;;;2.78;0.63;;;;;;;;;;5034390;28;20029;-62
2021/06/26 04:34:46;;;;;;;2.08;0.68;;;;;;;;;;5034246;28;20096;-62
2021/06/26 04:37:11;;;;;;;3.03;0.80;;;;;;;;;;5034583;28;20063;-62
2021/06/26 04:39:36;;;;;;;2.28;0.60;;;;;;;;;;5034264;28;20333;-62
2021/06/26 04:42:02;;;;;;;1.98;0.77;;;;;;;;;;5034138;28;20049;-62
2021/06/26 04:44:27;;;;;;;1.80;0.50;;;;;;;;;;5034033;28;20412;-62
2021/06/26 04:46:52;;;;;;;1.10;0.60;;;;;;;;;;5033937;28;20067;-62
2021/06/26 04:49:17;;;;;;;4.13;0.70;;;;;;;;;;5033066;28;20017;-62
2021/06/26 04:51:43;;;;;;;2.43;0.93;;;;;;;;;;5034046;28;20496;-62
2021/06/26 04:54:08;;;;;;;5.20;1.63;;;;;;;;;;5033837;28;20025;-62
2021/06/26 04:56:33;;;;;;;1.83;0.75;;;;;;;;;;5033957;28;20269;-62
2021/06/26 04:58:58;;;;;;;2.05;0.88;;;;;;;;;;5033660;28;20021;-62
2021/06/26 05:01:24;;;;;;;3.15;0.98;;;;;;;;;;5033887;28;20033;-62
2021/06/26 05:03:49;;;;;;;2.65;1.00;;;;;;;;;;5033563;28;20480;-62
2021/06/26 05:06:16;;;;;;;1.67;0.67;;;;;;;;;;5033758;28;20461;-62
2021/06/26 05:08:41;;;;;;;3.03;1.25;;;;;;;;;;5033687;28;20009;-62
2021/06/26 05:11:07;;;;;;;1.90;0.68;;;;;;;;;;5033487;28;20030;-62
2021/06/26 05:13:32;;;;;;;1.30;0.50;;;;;;;;;;5033667;28;20049;-62
2021/06/26 05:15:57;;;;;;;3.25;0.93;;;;;;;;;;5033372;28;20488;-62
2021/06/26 05:18:22;;;;;;;1.37;0.70;;;;;;;;;;5033591;28;20035;-62
2021/06/26 05:20:48;;;;;;;1.90;0.50;;;;;;;;;;5033280;28;20599;-62
2021/06/26 05:23:14;;;;;;;2.90;0.93;;;;;;;;;;5033112;28;20274;-62
2021/06/26 05:25:39;;;;;;;1.70;0.70;;;;;;;;;;5033327;28;20372;-62
2021/06/26 05:28:05;;;;;;;1.90;0.50;;;;;;;;;;5032605;28;20513;-62
2021/06/26 05:30:30;;;;;;;1.10;0.40;;;;;;;;;;5033239;28;20063;-62
2021/06/26 05:32:55;;;;;;;2.30;1.00;;;;;;;;;;5033055;28;20024;-62
2021/06/26 05:35:20;;;;;;;3.77;1.20;;;;;;;;;;5033210;28;20738;-63
2021/06/26 05:37:46;;;;;;;2.35;0.82;;;;;;;;;;5033082;28;20033;-63
2021/06/26 05:40:11;;;;;;;4.53;1.00;;;;;;;;;;5033104;28;20030;-63
2021/06/26 05:42:37;;;;;;;5.00;1.42;;;;;;;;;;5033056;28;20112;-63
2021/06/26 05:45:02;;;;;;;1.67;0.80;;;;;;;;;;5032910;28;20032;-63
2021/06/26 05:47:27;;;;;;;1.70;0.70;;;;;;;;;;5033056;28;20029;-63
2021/06/26 05:49:53;;;;;;;1.47;0.60;;;;;;;;;;5032797;28;20075;-62
2021/06/26 05:52:19;;;;;;;1.95;0.90;;;;;;;;;;5032929;28;20029;-62
2021/06/26 05:54:44;;;;;;;0.90;0.70;;;;;;;;;;5032849;28;20026;-62
2021/06/26 05:57:09;;;;;;;3.22;1.00;;;;;;;;;;5032812;28;20040;-62
2021/06/26 05:59:34;;;;;;;1.10;0.60;;;;;;;;;;5032820;28;20076;-62
2021/06/26 06:01:59;;;;;;;2.33;0.70;;;;;;;;;;5031232;28;20247;-62
2021/06/26 06:04:25;;;;;;;3.07;1.00;;;;;;;;;;5032740;28;20519;-62
2021/06/26 06:06:50;;;;;;;1.03;0.77;;;;;;;;;;5032564;28;20021;-62
2021/06/26 06:09:15;;;;;;;2.22;0.80;;;;;;;;;;5033064;28;20643;-62
2021/06/26 06:11:41;;;;;;;1.80;0.80;;;;;;;;;;5032633;28;20026;-63
2021/06/26 06:14:06;;;;;;;3.13;1.10;;;;;;;;;;5032506;28;20068;-63
2021/06/26 06:16:31;;;;;;;2.17;0.80;;;;;;;;;;5032617;28;20022;-62
2021/06/26 06:18:57;;;;;;;2.55;0.80;;;;;;;;;;5032430;28;20049;-62
2021/06/26 06:21:22;;;;;;;2.00;1.00;;;;;;;;;;5032553;28;20075;-62
2021/06/26 06:23:47;;;;;;;2.58;1.10;;;;;;;;;;5032056;28;20299;-63
2021/06/26 06:26:12;;;;;;;2.60;0.73;;;;;;;;;;5032481;28;20073;-62
2021/06/26 06:28:38;;;;;;;4.10;1.55;;;;;;;;;;5032751;28;20080;-63
2021/06/26 06:31:03;;;;;;;2.75;1.05;;;;;;;;;;5032539;28;20018;-64
2021/06/26 06:33:28;;;;;;;2.17;0.90;;;;;;;;;;5032468;28;20026;-62
2021/06/26 06:35:53;;;;;;;2.72;1.30;;;;;;;;;;5032236;28;20281;-62
2021/06/26 06:38:18;;;;;;;2.33;0.90;;;;;;;;;;5032380;28;20473;-63
2021/06/26 06:40:44;;;;;;;1.15;0.80;;;;;;;;;;5034994;28;20257;-62
2021/06/26 06:43:09;;;;;;;1.42;0.82;;;;;;;;;;5036596;28;20452;-62
2021/06/26 06:45:34;;;;;;;1.77;0.80;;;;;;;;;;5036456;28;20013;-63
2021/06/26 06:47:59;;;;;;;2.63;1.33;;;;;;;;;;5036187;28;20014;-63
2021/06/26 06:50:25;;;;;;;1.05;0.55;;;;;;;;;;5034932;28;20100;-62
2021/06/26 06:52:50;;;;;;;2.45;0.77;;;;;;;;;;5036089;28;20010;-62
2021/06/26 06:55:15;;;;;;;1.50;0.90;;;;;;;;;;5036226;28;20457;-63
2021/06/26 06:57:40;;;;;;;1.88;0.70;;;;;;;;;;5034844;28;20079;-63
2021/06/26 07:00:07;;;;;;;2.22;0.75;;;;;;;;;;5035967;28;20029;-62
2021/06/26 07:02:32;;;;;;;1.40;0.80;;;;;;;;;;5036172;28;20460;-63
2021/06/26 07:04:57;;;;;;;1.30;0.80;;;;;;;;;;5035820;28;20025;-62
2021/06/26 07:07:22;;;;;;;1.88;0.60;;;;;;;;;;5036357;28;20400;-63
2021/06/26 07:09:48;;;;;;;2.53;0.87;;;;;;;;;;5034509;28;20013;-62
2021/06/26 07:12:13;;;;;;;2.53;0.82;;;;;;;;;;5035873;28;20745;-63
2021/06/26 07:14:38;;;;;;;1.73;0.70;;;;;;;;;;5035915;28;20032;-63
2021/06/26 07:17:03;;;;;;;2.87;1.00;;;;;;;;;;5035639;28;20064;-62
2021/06/26 07:19:28;;;;;;;1.83;0.67;;;;;;;;;;5035628;28;20330;-63
2021/06/26 07:21:54;;;;;;;3.20;0.90;;;;;;;;;;5035566;28;20242;-63
2021/06/26 07:24:19;;;;;;;2.25;0.82;;;;;;;;;;5035896;28;20634;-63
2021/06/26 07:26:44;;;;;;;2.60;0.90;;;;;;;;;;5035324;28;20075;-63
2021/06/26 07:29:09;;;;;;;0.80;0.50;;;;;;;;;;5035521;28;20274;-63
2021/06/26 07:31:35;;;;;;;2.40;0.73;;;;;;;;;;5035589;28;20037;-63
2021/06/26 07:34:00;;;;;;;1.45;0.90;;;;;;;;;;5035384;28;20392;-63
2021/06/26 07:36:25;;;;;;;0.70;0.30;;;;;;;;;;5035783;28;20112;-63
2021/06/26 07:38:50;;;;;;;1.58;0.70;;;;;;;;;;5035255;28;20258;-63
2021/06/26 07:41:15;;;;;;;1.75;0.63;;;;;;;;;;5035478;28;20045;-63
2021/06/26 07:43:41;;;;;;;2.85;0.75;;;;;;;;;;5035264;28;20140;-62
2021/06/26 07:46:06;;;;;;;2.35;0.88;;;;;;;;;;5035140;28;20104;-63
2021/06/26 07:48:31;;;;;;;1.52;0.50;;;;;;;;;;5035317;28;20032;-63
2021/06/26 07:50:57;;;;;;;1.17;0.63;;;;;;;;;;5034901;28;20338;-62
2021/06/26 07:53:22;;;;;;;1.65;0.70;;;;;;;;;;5034875;28;20372;-62
2021/06/26 07:55:53;;;;;;;1.88;0.90;;;;;;;;;;5034997;28;20022;-63
2021/06/26 07:58:23;;;;;;;1.60;0.70;;;;;;;;;;5035119;28;20022;-63
2021/06/26 08:00:48;;;;;;;1.85;0.85;;;;;;;;;;5034679;28;20026;-63
2021/06/26 08:03:14;;;;;;;0.95;0.60;;;;;;;;;;5034933;28;20045;-63
2021/06/26 08:05:39;;;;;;;1.92;0.77;;;;;;;;;;5033666;28;20017;-63
2021/06/26 08:08:04;;;;;;;2.47;1.00;;;;;;;;;;5034759;28;20027;-63
2021/06/26 08:10:30;;;;;;;1.60;0.73;;;;;;;;;;5035215;28;20026;-63
2021/06/26 08:12:55;;;;;;;1.87;0.90;;;;;;;;;;5034580;28;20555;-63
2021/06/26 08:15:20;;;;;;;3.97;1.27;;;;;;;;;;5034833;28;20289;-63
2021/06/26 08:17:45;;;;;;;4.03;1.42;;;;;;;;;;5034893;28;20500;-63
2021/06/26 08:20:10;;;;;;;2.10;0.93;;;;;;;;;;5034639;28;20032;-63
2021/06/26 08:22:35;;;;;;;2.00;0.80;;;;;;;;;;5034423;28;20064;-63
2021/06/26 08:25:01;;;;;;;3.13;1.40;;;;;;;;;;5034392;28;20060;-64
2021/06/26 08:27:26;;;;;;;3.38;0.85;;;;;;;;;;5034489;28;20261;-63
2021/06/26 08:29:51;;;;;;;2.10;0.70;;;;;;;;;;5034613;28;20025;-63
2021/06/26 08:32:16;;;;;;;1.98;0.88;;;;;;;;;;5034454;28;20018;-63
2021/06/26 08:34:41;;;;;;;3.13;0.70;;;;;;;;;;5034349;28;20276;-63
2021/06/26 08:37:06;;;;;;;2.00;0.80;;;;;;;;;;5034240;28;20029;-63
2021/06/26 08:39:32;;;;;;;2.28;0.80;;;;;;;;;;5033354;28;20461;-63
2021/06/26 08:41:58;;;;;;;1.73;0.80;;;;;;;;;;5034100;28;20057;-64
2021/06/26 08:44:23;;;;;;;2.55;1.08;;;;;;;;;;5034096;28;20290;-64
2021/06/26 08:46:49;;;;;;;2.70;1.03;;;;;;;;;;5033948;28;20017;-64
2021/06/26 08:49:15;;;;;;;2.65;0.77;;;;;;;;;;5034058;28;20026;-63
2021/06/26 08:51:41;;;;;;;1.80;0.98;;;;;;;;;;5034025;28;20036;-64
2021/06/26 08:54:13;;;;;;;3.53;0.88;;;;;;;;;;5033890;28;20024;-64
2021/06/26 08:56:40;;;;;;;1.00;0.52;;;;;;;;;;5033941;28;20028;-64
2021/06/26 08:59:05;;;;;;;0.77;0.47;;;;;;;;;;5033978;28;20037;-63
2021/06/26 09:01:30;;;;;;;1.17;0.60;;;;;;;;;;5034249;28;20063;-64
2021/06/26 09:04:08;;;;;;;2.57;0.90;;;;;;;;;;5032505;28;20274;-64
2021/06/26 09:06:49;;;;;;;1.00;0.70;;;;;;;;;;5033828;28;20022;-64
2021/06/26 09:09:14;;;;;;;2.65;0.75;;;;;;;;;;5033727;28;20017;-63
2021/06/26 09:11:39;;;;;;;3.00;1.10;;;;;;;;;;5033631;28;20017;-63
2021/06/26 09:14:15;;;;;;;2.53;0.87;;;;;;;;;;5032203;28;20025;-63
2021/06/26 09:16:48;;;;;;;1.58;0.55;;;;;;;;;;5033540;28;20722;-63
2021/06/26 09:19:13;;;;;;;2.53;0.90;;;;;;;;;;5033508;28;20052;-63
2021/06/26 09:21:39;;;;;;;1.43;0.90;;;;;;;;;;5033485;28;20468;-64
2021/06/26 09:24:07;;;;;;;3.60;1.67;;;;;;;;;;5033047;28;20359;-64
2021/06/26 09:26:33;;;;;;;2.20;1.00;;;;;;;;;;5033420;28;20088;-63
2021/06/26 09:29:08;;;;;;;3.17;1.02;;;;;;;;;;5033235;28;20100;-63
2021/06/26 09:31:34;;;;;;;1.65;0.55;;;;;;;;;;5033549;28;20032;-64
2021/06/26 09:34:00;;;;;;;2.63;0.83;;;;;;;;;;5033110;28;20021;-63
2021/06/26 09:36:29;;;;;;;2.05;0.70;;;;;;;;;;5033169;28;20601;-63
2021/06/26 09:38:55;;;;;;;1.90;0.80;;;;;;;;;;5033270;28;20025;-63
2021/06/26 09:41:21;;;;;;;1.10;0.73;;;;;;;;;;5033166;28;20394;-63
2021/06/26 09:43:46;;;;;;;4.03;0.98;;;;;;;;;;5031556;28;20018;-64
2021/06/26 09:46:15;;;;;;;2.53;0.90;;;;;;;;;;5033035;28;20067;-64
2021/06/26 09:48:46;;;;;;;1.88;0.95;;;;;;;;;;5033007;28;20571;-64
2021/06/26 09:51:31;;;;;;;1.05;0.65;;;;;;;;;;5032919;28;20014;-63
2021/06/26 09:54:00;;;;;;;4.45;1.05;;;;;;;;;;5032767;28;20025;-64
2021/06/26 09:56:45;;;;;;;2.28;0.60;;;;;;;;;;5031621;28;20033;-64
2021/06/26 09:59:10;;;;;;;2.42;0.75;;;;;;;;;;5032798;28;20018;-64
2021/06/26 10:01:36;;;;;;;2.67;0.80;;;;;;;;;;5032792;28;20104;-63
2021/06/26 10:04:03;;;;;;;1.52;0.75;;;;;;;;;;5032911;28;20029;-63
2021/06/26 10:06:29;;;;;;;2.30;0.77;;;;;;;;;;5032838;28;20049;-64
2021/06/26 10:08:54;;;;;;;1.42;0.50;;;;;;;;;;5031300;28;20059;-63
2021/06/26 10:11:19;;;;;;;1.63;0.77;;;;;;;;;;5033012;28;20361;-63
2021/06/26 10:13:45;;;;;;;2.47;0.53;;;;;;;;;;5032564;28;20259;-63
2021/06/26 10:16:11;;;;;;;1.80;0.68;;;;;;;;;;5032285;28;20255;-64
2021/06/26 10:18:39;;;;;;;1.67;0.80;;;;;;;;;;5032923;28;20040;-63
2021/06/26 10:21:04;;;;;;;3.42;1.25;;;;;;;;;;5032432;28;20488;-63
2021/06/26 10:23:32;;;;;;;0.75;0.57;;;;;;;;;;5032351;28;20044;-64
2021/06/26 10:25:59;;;;;;;2.95;1.27;;;;;;;;;;5032276;28;20386;-63
2021/06/26 10:28:24;;;;;;;4.72;1.63;;;;;;;;;;5032441;28;20020;-63
2021/06/26 10:30:57;;;;;;;1.23;0.80;;;;;;;;;;5032253;28;20021;-63
2021/06/26 10:33:27;;;;;;;1.98;0.47;;;;;;;;;;5032731;28;20024;-63
2021/06/26 10:35:53;;;;;;;0.95;0.55;;;;;;;;;;5032163;28;20497;-64
2021/06/26 10:38:19;;;;;;;2.75;0.85;;;;;;;;;;5032382;28;20029;-63
2021/06/26 10:40:45;;;;;;;7.13;0.73;;;;;;;;;;5032265;28;20020;-63
2021/06/26 10:43:20;;;;;;;2.67;0.70;;;;;;;;;;5032244;28;20021;-63
2021/06/26 10:45:46;;;;;;;2.05;0.68;;;;;;;;;;5032202;28;20048;-63
2021/06/26 10:48:19;;;;;;;2.30;0.88;;;;;;;;;;5032207;28;20032;-64
2021/06/26 10:50:45;;;;;;;1.75;0.80;;;;;;;;;;5032261;28;20505;-63
2021/06/26 10:53:10;;;;;;;0.73;0.40;;;;;;;;;;5032169;28;20030;-63
2021/06/26 10:55:36;;;;;;;1.83;0.63;;;;;;;;;;5032280;28;20087;-63
2021/06/26 10:58:03;;;;;;;2.40;0.50;;;;;;;;;;5032337;28;20033;-63
2021/06/26 11:00:33;;;;;;;1.40;0.50;;;;;;;;;;5032223;28;20108;-63
2021/06/26 11:02:58;;;;;;;1.80;0.45;;;;;;;;;;5031969;28;20485;-63
2021/06/26 11:05:31;;;;;;;3.05;0.63;;;;;;;;;;5032109;28;20028;-64
2021/06/26 11:07:56;;;;;;;2.13;0.63;;;;;;;;;;5031930;28;20469;-63
2021/06/26 11:10:21;;;;;;;3.22;0.80;;;;;;;;;;5032107;28;20025;-63
2021/06/26 11:12:49;;;;;;;1.50;0.80;;;;;;;;;;5031924;28;20040;-63
2021/06/26 11:15:15;;;;;;;2.72;0.77;;;;;;;;;;5032069;28;20017;-63
2021/06/26 11:17:41;;;;;;;1.38;0.43;;;;;;;;;;5030559;28;20025;-63
2021/06/26 11:20:08;;;;;;;3.10;1.00;;;;;;;;;;5031884;28;20029;-63
2021/06/26 11:22:33;;;;;;;1.15;0.50;;;;;;;;;;5031856;28;20465;-63
2021/06/26 11:24:58;;;;;;;2.93;0.67;;;;;;;;;;5031734;28;20068;-63
2021/06/26 11:27:23;;;;;;;2.72;0.90;;;;;;;;;;5034009;28;20254;-63
2021/06/26 11:29:49;;;;;;;1.70;0.50;;;;;;;;;;5035514;28;20403;-63
2021/06/26 11:32:19;;;;;;;1.05;0.68;;;;;;;;;;5034214;28;20796;-63
2021/06/26 11:34:54;;;;;;;1.05;0.50;;;;;;;;;;5035423;28;20025;-63
2021/06/26 11:37:19;;;;;;;4.18;1.08;;;;;;;;;;5035434;28;20025;-63
2021/06/26 11:39:44;;;;;;;2.33;0.57;;;;;;;;;;5035409;28;20018;-64
2021/06/26 11:42:17;;;;;;;2.03;0.80;;;;;;;;;;5035580;28;20026;-64
2021/06/26 11:44:42;;;;;;;2.83;0.68;;;;;;;;;;5035301;28;20457;-63
2021/06/26 11:47:08;;;;;;;1.90;0.90;;;;;;;;;;5035197;28;20064;-64
2021/06/26 11:49:38;;;;;;;1.23;0.40;;;;;;;;;;5035305;28;20246;-63
2021/06/26 11:52:04;;;;;;;3.03;0.75;;;;;;;;;;5035088;28;20048;-64
2021/06/26 11:54:29;;;;;;;1.30;0.82;;;;;;;;;;5034982;28;20032;-63
2021/06/26 11:56:54;;;;;;;2.83;0.77;;;;;;;;;;5035252;28;20025;-63
2021/06/26 11:59:19;;;;;;;1.67;0.70;;;;;;;;;;5035049;28;20598;-63
2021/06/26 12:01:45;;;;;;;1.87;0.60;;;;;;;;;;5034953;28;20029;-63
2021/06/26 12:04:10;;;;;;;1.58;0.50;;;;;;;;;;5035123;28;20329;-63
2021/06/26 12:06:38;;;;;;;1.37;0.40;;;;;;;;;;5034985;28;20023;-63
2021/06/26 12:09:05;;;;;;;2.83;0.63;;;;;;;;;;5034744;28;20714;-64
2021/06/26 12:11:35;;;;;;;1.10;0.60;;;;;;;;;;5034914;28;20022;-63
2021/06/26 12:14:01;;;;;;;1.63;0.68;;;;;;;;;;5034622;28;20412;-63
2021/06/26 12:16:27;;;;;;;1.48;0.40;;;;;;;;;;5034800;28;20017;-63
2021/06/26 12:18:52;;;;;;;1.55;0.80;;;;;;;;;;5034539;28;20376;-64
2021/06/26 12:21:18;;;;;;;3.07;0.70;;;;;;;;;;5034678;28;20024;-63
2021/06/26 12:23:47;;;;;;;0.90;0.47;;;;;;;;;;5034319;28;20633;-64
2021/06/26 12:26:16;;;;;;;2.70;0.63;;;;;;;;;;5034591;28;20028;-63
2021/06/26 12:28:41;;;;;;;1.70;0.47;;;;;;;;;;5034508;28;20063;-63
2021/06/26 12:31:07;;;;;;;1.03;0.40;;;;;;;;;;5034335;28;20022;-63
2021/06/26 12:33:32;;;;;;;1.77;0.47;;;;;;;;;;5034522;28;20580;-63
2021/06/26 12:35:57;;;;;;;1.95;0.40;;;;;;;;;;5034194;28;20250;-64
2021/06/26 12:38:33;;;;;;;1.13;0.40;;;;;;;;;;5034134;28;20045;-63
2021/06/26 12:40:58;;;;;;;2.50;0.65;;;;;;;;;;5034154;28;20338;-64
2021/06/26 12:43:31;;;;;;;1.80;0.40;;;;;;;;;;5034195;28;20014;-63
2021/06/26 12:45:56;;;;;;;0.80;0.55;;;;;;;;;;5033991;28;20257;-61
2021/06/26 12:48:27;;;;;;;1.73;0.60;;;;;;;;;;5032902;28;20017;-61
2021/06/26 12:51:03;;;;;;;2.10;0.60;;;;;;;;;;5033888;28;20249;-60
2021/06/26 12:53:33;;;;;;;4.10;0.60;;;;;;;;;;5034104;28;20017;-60
2021/06/26 12:56:02;;;;;;;1.27;0.40;;;;;;;;;;5033856;28;20044;-61
2021/06/26 12:58:27;;;;;;;1.58;0.82;;;;;;;;;;5033905;28;20037;-61
2021/06/26 13:00:53;;;;;;;0.40;0.25;;;;;;;;;;5033720;28;20028;-61
2021/06/26 13:03:18;;;;;;;1.45;0.52;;;;;;;;;;5033765;28;20014;-61
2021/06/26 13:05:44;;;;;;;2.90;0.33;;;;;;;;;;5033810;28;20023;-60
2021/06/26 13:08:09;;;;;;;1.23;0.40;;;;;;;;;;5033962;28;20586;-61
2021/06/26 13:10:37;;;;;;;1.58;0.65;;;;;;;;;;5033830;28;20025;-61
2021/06/26 13:13:02;;;;;;;1.52;0.57;;;;;;;;;;5033625;28;20169;-61
2021/06/26 13:15:28;;;;;;;1.67;0.40;;;;;;;;;;5033957;28;20461;-61
2021/06/26 13:17:54;;;;;;;1.05;0.30;;;;;;;;;;5033437;28;20100;-61
2021/06/26 13:20:19;;;;;;;1.65;0.50;;;;;;;;;;5033553;28;20049;-61
2021/06/26 13:22:44;;;;;;;2.78;0.60;;;;;;;;;;5033310;28;20041;-60
2021/06/26 13:25:12;;;;;;;2.03;0.40;;;;;;;;;;5033543;28;20078;-64
2021/06/26 13:27:41;;;;;;;4.07;0.98;;;;;;;;;;5033358;28;20396;-63
2021/06/26 13:30:07;;;;;;;2.15;0.40;;;;;;;;;;5033455;28;20140;-64
2021/06/26 13:32:32;;;;;;;1.05;0.38;;;;;;;;;;5033381;28;20167;-63
2021/06/26 13:34:57;;;;;;;1.90;0.80;;;;;;;;;;5033139;28;20536;-63
2021/06/26 13:37:22;;;;;;;1.55;0.50;;;;;;;;;;5033263;28;20251;-64
2021/06/26 13:39:48;;;;;;;1.23;0.47;;;;;;;;;;5033124;28;20480;-64
2021/06/26 13:42:13;;;;;;;3.67;0.65;;;;;;;;;;5033183;28;20262;-63
2021/06/26 13:44:38;;;;;;;1.70;0.67;;;;;;;;;;5033087;28;20420;-63
2021/06/26 13:47:03;;;;;;;2.17;0.63;;;;;;;;;;5032964;28;20017;-64
2021/06/26 13:49:30;;;;;;;2.35;0.85;;;;;;;;;;5032572;28;20630;-63
2021/06/26 13:51:55;;;;;;;1.38;0.40;;;;;;;;;;5032838;28;20252;-63
2021/06/26 13:54:20;;;;;;;1.10;0.60;;;;;;;;;;5033258;28;20105;-63
2021/06/26 13:56:45;;;;;;;2.03;0.57;;;;;;;;;;5032886;28;20087;-63
2021/06/26 13:59:10;;;;;;;2.40;0.63;;;;;;;;;;5032791;28;20461;-64
2021/06/26 14:01:35;;;;;;;1.17;0.50;;;;;;;;;;5031586;28;20254;-63
2021/06/26 14:04:01;;;;;;;1.67;0.40;;;;;;;;;;5032599;28;20457;-65
2021/06/26 14:06:27;;;;;;;2.03;0.60;;;;;;;;;;5032792;28;20022;-63
2021/06/26 14:08:52;;;;;;;0.68;0.30;;;;;;;;;;5031276;28;20044;-63
2021/06/26 14:11:17;;;;;;;1.85;0.82;;;;;;;;;;5032735;28;20025;-64
2021/06/26 14:13:42;;;;;;;3.03;0.80;;;;;;;;;;5032688;28;20057;-65
2021/06/26 14:16:08;;;;;;;2.37;0.50;;;;;;;;;;5032497;28;20326;-64
2021/06/26 14:18:34;;;;;;;1.60;0.30;;;;;;;;;;5032696;28;20694;-63
2021/06/26 14:20:59;;;;;;;4.57;1.00;;;;;;;;;;5032458;28;20017;-64
2021/06/26 14:23:25;;;;;;;1.95;0.70;;;;;;;;;;5032329;28;20053;-64
2021/06/26 14:25:50;;;;;;;1.98;0.55;;;;;;;;;;5032343;28;20059;-64
2021/06/26 14:28:15;;;;;;;1.03;0.40;;;;;;;;;;5032576;28;20027;-63
2021/06/26 14:30:40;;;;;;;2.43;0.80;;;;;;;;;;5032409;28;20243;-63
2021/06/26 14:33:08;;;;;;;0.95;0.68;;;;;;;;;;5032360;28;20029;-65
2021/06/26 14:35:33;;;;;;;2.65;0.88;;;;;;;;;;5032427;28;20491;-64